sensor_id;sensor_type;location;lat;lon;timestamp;pressure;altitude;pressure_sealevel;temperature;humidity
22753;BME280;11543;43.144;24.684;2024-03-17T00:01:52;99190.88;;;11.10;71.48
22753;BME280;11543;43.144;24.684;2024-03-17T00:04:17;99168.69;;;10.80;71.35
22753;BME280;11543;43.144;24.684;2024-03-17T00:06:45;99169.59;;;10.71;72.22
22753;BME280;11543;43.144;24.684;2024-03-17T00:09:10;99170.47;;;10.62;72.83
22753;BME280;11543;43.144;24.684;2024-03-17T00:11:36;99180.66;;;10.59;73.05
22753;BME280;11543;43.144;24.684;2024-03-17T00:14:02;99186.88;;;10.59;73.59
22753;BME280;11543;43.144;24.684;2024-03-17T00:16:27;99180.09;;;10.55;73.63
22753;BME280;11543;43.144;24.684;2024-03-17T00:18:53;99176.44;;;10.56;73.38
22753;BME280;11543;43.144;24.684;2024-03-17T00:21:19;99151.63;;;10.44;73.10
22753;BME280;11543;43.144;24.684;2024-03-17T00:23:47;99162.03;;;10.57;73.10
22753;BME280;11543;43.144;24.684;2024-03-17T00:26:14;99156.66;;;10.57;73.09
22753;BME280;11543;43.144;24.684;2024-03-17T00:28:40;99165.13;;;10.62;72.80
22753;BME280;11543;43.144;24.684;2024-03-17T00:31:05;99167.66;;;10.64;72.45
22753;BME280;11543;43.144;24.684;2024-03-17T00:33:31;99158.66;;;10.55;72.51
22753;BME280;11543;43.144;24.684;2024-03-17T00:35:59;99162.44;;;10.62;72.21
22753;BME280;11543;43.144;24.684;2024-03-17T00:38:24;99151.88;;;10.51;72.00
22753;BME280;11543;43.144;24.684;2024-03-17T00:40:50;99164.00;;;10.55;71.68
22753;BME280;11543;43.144;24.684;2024-03-17T00:43:15;99162.63;;;10.51;71.95
22753;BME280;11543;43.144;24.684;2024-03-17T00:45:41;99151.34;;;10.38;71.99
22753;BME280;11543;43.144;24.684;2024-03-17T00:48:07;99152.31;;;10.37;72.55
22753;BME280;11543;43.144;24.684;2024-03-17T00:50:32;99158.13;;;10.42;72.15
22753;BME280;11543;43.144;24.684;2024-03-17T00:52:58;99170.56;;;10.43;72.03
22753;BME280;11543;43.144;24.684;2024-03-17T00:55:23;99163.50;;;10.42;72.21
22753;BME280;11543;43.144;24.684;2024-03-17T00:57:49;99181.09;;;10.54;71.88
22753;BME280;11543;43.144;24.684;2024-03-17T01:00:15;99137.25;;;10.26;72.03
22753;BME280;11543;43.144;24.684;2024-03-17T01:02:40;99175.63;;;10.46;72.19
22753;BME280;11543;43.144;24.684;2024-03-17T01:05:06;99158.38;;;10.39;71.64
22753;BME280;11543;43.144;24.684;2024-03-17T01:07:33;99141.19;;;10.32;71.52
22753;BME280;11543;43.144;24.684;2024-03-17T01:09:58;99152.22;;;10.29;71.25
22753;BME280;11543;43.144;24.684;2024-03-17T01:12:24;99151.38;;;10.18;71.81
22753;BME280;11543;43.144;24.684;2024-03-17T01:14:50;99163.78;;;10.19;72.17
22753;BME280;11543;43.144;24.684;2024-03-17T01:17:16;99145.47;;;10.05;72.38
22753;BME280;11543;43.144;24.684;2024-03-17T01:19:42;99135.06;;;9.93;72.45
22753;BME280;11543;43.144;24.684;2024-03-17T01:22:08;99153.94;;;10.01;72.77
22753;BME280;11543;43.144;24.684;2024-03-17T01:24:33;99156.75;;;10.09;72.41
22753;BME280;11543;43.144;24.684;2024-03-17T01:26:59;99151.13;;;10.02;72.65
22753;BME280;11543;43.144;24.684;2024-03-17T01:29:25;99165.34;;;10.12;72.88
22753;BME280;11543;43.144;24.684;2024-03-17T01:31:51;99164.38;;;10.13;72.71
22753;BME280;11543;43.144;24.684;2024-03-17T01:34:21;99185.53;;;10.26;72.81
22753;BME280;11543;43.144;24.684;2024-03-17T01:36:47;99157.31;;;10.12;72.89
22753;BME280;11543;43.144;24.684;2024-03-17T01:39:12;99169.44;;;10.16;72.76
22753;BME280;11543;43.144;24.684;2024-03-17T01:41:39;99179.16;;;10.17;72.55
22753;BME280;11543;43.144;24.684;2024-03-17T01:44:04;99165.94;;;10.06;72.25
22753;BME280;11543;43.144;24.684;2024-03-17T01:46:30;99177.06;;;10.11;72.36
22753;BME280;11543;43.144;24.684;2024-03-17T01:48:55;99140.16;;;9.86;72.32
22753;BME280;11543;43.144;24.684;2024-03-17T01:51:21;99174.25;;;10.03;72.52
22753;BME280;11543;43.144;24.684;2024-03-17T01:53:48;99148.88;;;9.88;72.33
22753;BME280;11543;43.144;24.684;2024-03-17T01:56:16;99177.63;;;10.05;72.24
22753;BME280;11543;43.144;24.684;2024-03-17T01:58:45;99172.28;;;10.05;72.21
22753;BME280;11543;43.144;24.684;2024-03-17T02:01:13;99164.09;;;9.97;71.97
22753;BME280;11543;43.144;24.684;2024-03-17T02:03:42;99160.72;;;9.95;71.98
22753;BME280;11543;43.144;24.684;2024-03-17T02:06:08;99153.97;;;9.91;72.36
22753;BME280;11543;43.144;24.684;2024-03-17T02:08:48;99171.88;;;10.00;71.90
22753;BME280;11543;43.144;24.684;2024-03-17T02:11:33;99166.94;;;9.96;72.34
22753;BME280;11543;43.144;24.684;2024-03-17T02:14:00;99172.28;;;9.96;72.47
22753;BME280;11543;43.144;24.684;2024-03-17T02:16:26;99164.53;;;9.93;72.87
22753;BME280;11543;43.144;24.684;2024-03-17T02:18:55;99161.84;;;9.93;72.86
22753;BME280;11543;43.144;24.684;2024-03-17T02:21:22;99169.75;;;9.94;73.08
22753;BME280;11543;43.144;24.684;2024-03-17T02:23:52;99136.22;;;9.71;73.41
22753;BME280;11543;43.144;24.684;2024-03-17T02:26:18;99147.38;;;9.66;73.56
22753;BME280;11543;43.144;24.684;2024-03-17T02:28:45;99144.41;;;9.60;74.01
22753;BME280;11543;43.144;24.684;2024-03-17T02:31:13;99142.25;;;9.53;74.44
22753;BME280;11543;43.144;24.684;2024-03-17T02:33:40;99164.00;;;9.60;74.77
22753;BME280;11543;43.144;24.684;2024-03-17T02:36:06;99164.16;;;9.58;74.74
22753;BME280;11543;43.144;24.684;2024-03-17T02:38:41;99151.75;;;9.57;74.78
22753;BME280;11543;43.144;24.684;2024-03-17T02:41:26;99166.97;;;9.76;74.62
22753;BME280;11543;43.144;24.684;2024-03-17T02:43:52;99152.00;;;9.74;74.46
22753;BME280;11543;43.144;24.684;2024-03-17T02:46:18;99159.19;;;9.73;74.22
22753;BME280;11543;43.144;24.684;2024-03-17T02:48:51;99167.09;;;9.84;74.14
22753;BME280;11543;43.144;24.684;2024-03-17T02:51:19;99167.53;;;9.80;73.91
22753;BME280;11543;43.144;24.684;2024-03-17T02:53:46;99174.00;;;9.87;73.95
22753;BME280;11543;43.144;24.684;2024-03-17T02:56:12;99171.31;;;9.87;73.79
22753;BME280;11543;43.144;24.684;2024-03-17T02:58:38;99174.44;;;9.82;73.85
22753;BME280;11543;43.144;24.684;2024-03-17T03:01:05;99177.97;;;9.64;73.95
22753;BME280;11543;43.144;24.684;2024-03-17T03:03:32;99168.09;;;9.54;74.55
22753;BME280;11543;43.144;24.684;2024-03-17T03:05:58;99171.19;;;9.60;75.37
22753;BME280;11543;43.144;24.684;2024-03-17T03:08:24;99169.22;;;9.62;75.23
22753;BME280;11543;43.144;24.684;2024-03-17T03:10:50;99140.47;;;9.54;75.00
22753;BME280;11543;43.144;24.684;2024-03-17T03:13:16;99141.03;;;9.57;74.63
22753;BME280;11543;43.144;24.684;2024-03-17T03:15:41;99140.47;;;9.64;74.79
22753;BME280;11543;43.144;24.684;2024-03-17T03:18:07;99158.22;;;9.74;74.42
22753;BME280;11543;43.144;24.684;2024-03-17T03:20:33;99153.28;;;9.70;74.64
22753;BME280;11543;43.144;24.684;2024-03-17T03:22:59;99152.00;;;9.74;74.71
22753;BME280;11543;43.144;24.684;2024-03-17T03:25:25;99162.44;;;9.77;74.52
22753;BME280;11543;43.144;24.684;2024-03-17T03:27:50;99150.59;;;9.70;74.77
22753;BME280;11543;43.144;24.684;2024-03-17T03:30:16;99153.13;;;9.71;74.78
22753;BME280;11543;43.144;24.684;2024-03-17T03:32:51;99139.59;;;9.63;74.82
22753;BME280;11543;43.144;24.684;2024-03-17T03:35:17;99132.53;;;9.52;74.96
22753;BME280;11543;43.144;24.684;2024-03-17T03:37:43;99157.38;;;9.74;74.69
22753;BME280;11543;43.144;24.684;2024-03-17T03:40:09;99147.50;;;9.65;74.54
22753;BME280;11543;43.144;24.684;2024-03-17T03:42:44;99142.44;;;9.62;74.68
22753;BME280;11543;43.144;24.684;2024-03-17T03:45:10;99141.88;;;9.58;74.53
22753;BME280;11543;43.144;24.684;2024-03-17T03:47:39;99166.41;;;9.73;74.51
22753;BME280;11543;43.144;24.684;2024-03-17T03:50:07;99153.44;;;9.68;74.40
22753;BME280;11543;43.144;24.684;2024-03-17T03:52:37;99153.97;;;9.72;74.57
22753;BME280;11543;43.144;24.684;2024-03-17T03:55:07;99164.13;;;9.78;74.49
22753;BME280;11543;43.144;24.684;2024-03-17T03:57:36;99171.88;;;9.81;74.73
22753;BME280;11543;43.144;24.684;2024-03-17T04:00:02;99175.41;;;9.81;74.60
22753;BME280;11543;43.144;24.684;2024-03-17T04:02:38;99164.13;;;9.78;74.58
22753;BME280;11543;43.144;24.684;2024-03-17T04:05:04;99181.75;;;9.90;74.71
22753;BME280;11543;43.144;24.684;2024-03-17T04:07:30;99177.38;;;9.79;74.52
22753;BME280;11543;43.144;24.684;2024-03-17T04:09:55;99188.97;;;9.70;74.58
22753;BME280;11543;43.144;24.684;2024-03-17T04:12:21;99196.81;;;9.52;75.08
22753;BME280;11543;43.144;24.684;2024-03-17T04:14:47;99170.56;;;9.17;75.09
22753;BME280;11543;43.144;24.684;2024-03-17T04:17:17;99171.69;;;9.15;75.76
22753;BME280;11543;43.144;24.684;2024-03-17T04:19:44;99186.38;;;9.30;76.82
22753;BME280;11543;43.144;24.684;2024-03-17T04:22:10;99174.09;;;9.18;76.95
22753;BME280;11543;43.144;24.684;2024-03-17T04:24:36;99198.47;;;9.24;77.39
22753;BME280;11543;43.144;24.684;2024-03-17T04:27:02;99179.00;;;9.13;77.70
22753;BME280;11543;43.144;24.684;2024-03-17T04:29:29;99200.75;;;9.39;77.72
22753;BME280;11543;43.144;24.684;2024-03-17T04:31:55;99181.56;;;9.24;77.82
22753;BME280;11543;43.144;24.684;2024-03-17T04:34:21;99184.66;;;9.29;77.77
22753;BME280;11543;43.144;24.684;2024-03-17T04:36:46;99190.03;;;9.29;77.77
22753;BME280;11543;43.144;24.684;2024-03-17T04:39:12;99178.88;;;9.24;77.77
22753;BME280;11543;43.144;24.684;2024-03-17T04:41:37;99193.41;;;9.41;77.65
22753;BME280;11543;43.144;24.684;2024-03-17T04:44:06;99201.47;;;9.50;77.45
22753;BME280;11543;43.144;24.684;2024-03-17T04:46:32;99191.31;;;9.44;77.47
22753;BME280;11543;43.144;24.684;2024-03-17T04:48:57;99182.44;;;9.34;77.58
22753;BME280;11543;43.144;24.684;2024-03-17T04:51:23;99182.16;;;9.37;77.40
22753;BME280;11543;43.144;24.684;2024-03-17T04:53:48;99195.41;;;9.48;77.16
22753;BME280;11543;43.144;24.684;2024-03-17T04:56:14;99210.38;;;9.61;76.91
22753;BME280;11543;43.144;24.684;2024-03-17T04:58:39;99196.28;;;9.58;77.16
22753;BME280;11543;43.144;24.684;2024-03-17T05:01:08;99198.97;;;9.58;76.95
22753;BME280;11543;43.144;24.684;2024-03-17T05:03:35;99205.59;;;9.64;76.82
22753;BME280;11543;43.144;24.684;2024-03-17T05:06:02;99233.25;;;9.84;76.86
22753;BME280;11543;43.144;24.684;2024-03-17T05:08:29;99204.19;;;9.70;76.81
22753;BME280;11543;43.144;24.684;2024-03-17T05:10:59;99211.09;;;9.72;76.53
22753;BME280;11543;43.144;24.684;2024-03-17T05:13:26;99198.13;;;9.68;76.43
22753;BME280;11543;43.144;24.684;2024-03-17T05:15:51;99218.56;;;9.78;76.48
22753;BME280;11543;43.144;24.684;2024-03-17T05:18:17;99209.25;;;9.73;76.27
22753;BME280;11543;43.144;24.684;2024-03-17T05:20:42;99220.53;;;9.76;75.97
22753;BME280;11543;43.144;24.684;2024-03-17T05:23:08;99223.09;;;9.78;75.93
22753;BME280;11543;43.144;24.684;2024-03-17T05:25:33;99240.28;;;9.85;75.99
22753;BME280;11543;43.144;24.684;2024-03-17T05:28:02;99199.41;;;9.64;75.85
22753;BME280;11543;43.144;24.684;2024-03-17T05:30:28;99228.03;;;9.82;75.90
22753;BME280;11543;43.144;24.684;2024-03-17T05:32:53;99245.94;;;9.92;75.74
22753;BME280;11543;43.144;24.684;2024-03-17T05:35:18;99227.59;;;9.87;75.77
22753;BME280;11543;43.144;24.684;2024-03-17T05:37:44;99232.38;;;9.93;75.78
22753;BME280;11543;43.144;24.684;2024-03-17T05:40:10;99223.38;;;9.94;75.74
22753;BME280;11543;43.144;24.684;2024-03-17T05:42:41;99262.28;;;10.17;75.84
22753;BME280;11543;43.144;24.684;2024-03-17T05:45:09;99231.53;;;10.02;75.79
22753;BME280;11543;43.144;24.684;2024-03-17T05:47:40;99231.53;;;10.02;75.77
22753;BME280;11543;43.144;24.684;2024-03-17T05:50:06;99239.72;;;10.10;75.83
22753;BME280;11543;43.144;24.684;2024-03-17T05:52:32;99212.06;;;10.00;76.17
22753;BME280;11543;43.144;24.684;2024-03-17T05:54:57;99227.84;;;10.13;76.18
22753;BME280;11543;43.144;24.684;2024-03-17T05:57:23;99232.94;;;10.26;76.05
22753;BME280;11543;43.144;24.684;2024-03-17T05:59:49;99243.38;;;10.38;76.10
22753;BME280;11543;43.144;24.684;2024-03-17T06:02:15;99240.28;;;10.43;75.83
22753;BME280;11543;43.144;24.684;2024-03-17T06:04:41;99220.38;;;10.36;76.02
22753;BME280;11543;43.144;24.684;2024-03-17T06:07:07;99241.13;;;10.53;76.29
22753;BME280;11543;43.144;24.684;2024-03-17T06:09:32;99234.31;;;10.59;76.33
22753;BME280;11543;43.144;24.684;2024-03-17T06:11:58;99228.41;;;10.55;76.03
22753;BME280;11543;43.144;24.684;2024-03-17T06:14:23;99248.41;;;10.70;76.46
22753;BME280;11543;43.144;24.684;2024-03-17T06:16:49;99238.81;;;10.68;76.22
22753;BME280;11543;43.144;24.684;2024-03-17T06:19:14;99236.81;;;10.70;76.15
22753;BME280;11543;43.144;24.684;2024-03-17T06:21:40;99246.53;;;10.80;76.52
22753;BME280;11543;43.144;24.684;2024-03-17T06:24:06;99242.16;;;10.79;76.41
22753;BME280;11543;43.144;24.684;2024-03-17T06:26:32;99237.09;;;10.76;76.37
22753;BME280;11543;43.144;24.684;2024-03-17T06:29:00;99250.03;;;10.91;76.12
22753;BME280;11543;43.144;24.684;2024-03-17T06:31:25;99242.38;;;10.96;76.27
22753;BME280;11543;43.144;24.684;2024-03-17T06:33:51;99265.75;;;11.13;76.25
22753;BME280;11543;43.144;24.684;2024-03-17T06:36:16;99251.63;;;11.11;76.39
22753;BME280;11543;43.144;24.684;2024-03-17T06:38:43;99231.59;;;11.05;76.49
22753;BME280;11543;43.144;24.684;2024-03-17T06:41:11;99242.00;;;11.18;76.45
22753;BME280;11543;43.144;24.684;2024-03-17T06:43:40;99239.00;;;11.21;76.62
22753;BME280;11543;43.144;24.684;2024-03-17T06:46:07;99250.56;;;11.31;76.63
22753;BME280;11543;43.144;24.684;2024-03-17T06:48:33;99257.44;;;11.43;76.81
22753;BME280;11543;43.144;24.684;2024-03-17T06:50:59;99257.44;;;11.43;76.79
22753;BME280;11543;43.144;24.684;2024-03-17T06:53:24;99277.13;;;11.62;76.70
22753;BME280;11543;43.144;24.684;2024-03-17T06:55:59;99242.47;;;11.41;76.76
22753;BME280;11543;43.144;24.684;2024-03-17T06:58:26;99249.75;;;11.48;76.94
22753;BME280;11543;43.144;24.684;2024-03-17T07:00:57;99244.78;;;11.54;77.18
22753;BME280;11543;43.144;24.684;2024-03-17T07:03:23;99264.06;;;11.67;77.26
22753;BME280;11543;43.144;24.684;2024-03-17T07:05:57;99283.94;;;11.84;77.07
22753;BME280;11543;43.144;24.684;2024-03-17T07:08:23;99294.16;;;11.98;77.42
22753;BME280;11543;43.144;24.684;2024-03-17T07:11:06;99272.66;;;11.98;77.29
22753;BME280;11543;43.144;24.684;2024-03-17T07:13:38;99286.41;;;12.12;76.95
22753;BME280;11543;43.144;24.684;2024-03-17T07:16:05;99266.66;;;12.04;76.90
22753;BME280;11543;43.144;24.684;2024-03-17T07:18:31;99289.72;;;12.24;76.90
22753;BME280;11543;43.144;24.684;2024-03-17T07:20:58;99270.56;;;12.09;76.83
22753;BME280;11543;43.144;24.684;2024-03-17T07:23:25;99271.66;;;12.17;77.04
22753;BME280;11543;43.144;24.684;2024-03-17T07:25:52;99291.03;;;12.38;77.03
22753;BME280;11543;43.144;24.684;2024-03-17T07:28:19;99251.84;;;12.18;77.05
22753;BME280;11543;43.144;24.684;2024-03-17T07:30:55;99272.88;;;12.40;77.43
22753;BME280;11543;43.144;24.684;2024-03-17T07:33:22;99272.25;;;12.46;77.18
22753;BME280;11543;43.144;24.684;2024-03-17T07:35:52;99264.22;;;12.54;77.11
22753;BME280;11543;43.144;24.684;2024-03-17T07:38:19;99277.81;;;12.70;76.84
22753;BME280;11543;43.144;24.684;2024-03-17T07:40:54;99253.16;;;12.57;76.71
22753;BME280;11543;43.144;24.684;2024-03-17T07:43:20;99269.41;;;12.73;76.65
22753;BME280;11543;43.144;24.684;2024-03-17T07:45:45;99255.16;;;12.81;76.42
22753;BME280;11543;43.144;24.684;2024-03-17T07:48:12;99257.88;;;12.89;76.33
22753;BME280;11543;43.144;24.684;2024-03-17T07:50:38;99249.66;;;12.91;75.86
22753;BME280;11543;43.144;24.684;2024-03-17T07:53:04;99276.63;;;13.17;75.40
22753;BME280;11543;43.144;24.684;2024-03-17T07:55:30;99247.75;;;13.09;74.94
22753;BME280;11543;43.144;24.684;2024-03-17T07:57:58;99254.19;;;13.16;74.64
22753;BME280;11543;43.144;24.684;2024-03-17T08:00:23;99254.00;;;13.10;73.24
22753;BME280;11543;43.144;24.684;2024-03-17T08:02:49;99249.66;;;13.17;72.15
22753;BME280;11543;43.144;24.684;2024-03-17T08:05:15;99249.53;;;13.26;72.27
22753;BME280;11543;43.144;24.684;2024-03-17T08:07:40;99226.81;;;13.29;71.77
22753;BME280;11543;43.144;24.684;2024-03-17T08:10:08;99228.03;;;13.43;71.88
22753;BME280;11543;43.144;24.684;2024-03-17T08:12:33;99246.13;;;13.66;71.77
22753;BME280;11543;43.144;24.684;2024-03-17T08:14:59;99243.59;;;13.65;70.79
22753;BME280;11543;43.144;24.684;2024-03-17T08:17:25;99228.09;;;13.67;70.65
22753;BME280;11543;43.144;24.684;2024-03-17T08:19:51;99216.31;;;13.68;70.83
22753;BME280;11543;43.144;24.684;2024-03-17T08:22:17;99245.03;;;13.93;70.86
22753;BME280;11543;43.144;24.684;2024-03-17T08:24:42;99213.78;;;13.83;70.19
22753;BME280;11543;43.144;24.684;2024-03-17T08:27:08;99224.13;;;14.03;70.73
22753;BME280;11543;43.144;24.684;2024-03-17T08:29:34;99240.31;;;14.28;70.83
22753;BME280;11543;43.144;24.684;2024-03-17T08:32:00;99238.47;;;14.37;70.31
22753;BME280;11543;43.144;24.684;2024-03-17T08:34:25;99211.97;;;14.32;69.54
22753;BME280;11543;43.144;24.684;2024-03-17T08:36:51;99228.53;;;14.53;69.19
22753;BME280;11543;43.144;24.684;2024-03-17T08:39:16;99212.97;;;14.63;68.79
22753;BME280;11543;43.144;24.684;2024-03-17T08:41:42;99210.94;;;14.65;68.17
22753;BME280;11543;43.144;24.684;2024-03-17T08:44:09;99226.44;;;14.88;65.56
22753;BME280;11543;43.144;24.684;2024-03-17T08:46:35;99206.34;;;14.90;63.96
22753;BME280;11543;43.144;24.684;2024-03-17T08:49:00;99210.88;;;14.98;64.13
22753;BME280;11543;43.144;24.684;2024-03-17T08:51:26;99182.53;;;14.94;64.34
22753;BME280;11543;43.144;24.684;2024-03-17T08:53:53;99190.81;;;15.32;62.93
22753;BME280;11543;43.144;24.684;2024-03-17T08:56:18;99182.81;;;15.38;57.48
22753;BME280;11543;43.144;24.684;2024-03-17T08:58:45;99190.72;;;15.48;54.97
22753;BME280;11543;43.144;24.684;2024-03-17T09:01:13;99176.84;;;15.51;54.38
22753;BME280;11543;43.144;24.684;2024-03-17T09:03:40;99177.44;;;15.69;54.81
22753;BME280;11543;43.144;24.684;2024-03-17T09:06:16;99175.53;;;15.78;55.22
22753;BME280;11543;43.144;24.684;2024-03-17T09:08:42;99183.69;;;15.92;55.77
22753;BME280;11543;43.144;24.684;2024-03-17T09:11:12;99163.38;;;15.97;57.47
22753;BME280;11543;43.144;24.684;2024-03-17T09:13:38;99204.06;;;16.26;56.60
22753;BME280;11543;43.144;24.684;2024-03-17T09:16:04;99172.97;;;16.22;55.25
22753;BME280;11543;43.144;24.684;2024-03-17T09:18:31;99200.53;;;16.40;54.91
22753;BME280;11543;43.144;24.684;2024-03-17T09:23:26;99194.06;;;16.49;53.66
22753;BME280;11543;43.144;24.684;2024-03-17T09:28:26;99185.19;;;16.55;54.96
22753;BME280;11543;43.144;24.684;2024-03-17T09:30:52;99157.63;;;16.52;54.33
22753;BME280;11543;43.144;24.684;2024-03-17T09:33:22;99179.25;;;16.75;54.04
22753;BME280;11543;43.144;24.684;2024-03-17T09:36:07;99164.69;;;16.76;55.58
22753;BME280;11543;43.144;24.684;2024-03-17T09:38:34;99150.47;;;16.74;53.39
22753;BME280;11543;43.144;24.684;2024-03-17T09:41:00;99166.91;;;16.87;52.79
22753;BME280;11543;43.144;24.684;2024-03-17T09:43:30;99145.06;;;16.74;52.03
22753;BME280;11543;43.144;24.684;2024-03-17T09:45:56;99155.69;;;16.90;51.60
22753;BME280;11543;43.144;24.684;2024-03-17T09:48:28;99153.66;;;16.92;50.40
22753;BME280;11543;43.144;24.684;2024-03-17T09:50:59;99162.06;;;16.97;49.95
22753;BME280;11543;43.144;24.684;2024-03-17T09:53:31;99167.00;;;16.94;51.21
22753;BME280;11543;43.144;24.684;2024-03-17T09:55:59;99172.13;;;17.03;51.85
22753;BME280;11543;43.144;24.684;2024-03-17T09:58:25;99149.53;;;16.96;50.85
22753;BME280;11543;43.144;24.684;2024-03-17T10:00:51;99150.84;;;17.00;50.90
22753;BME280;11543;43.144;24.684;2024-03-17T10:03:49;99159.03;;;17.22;50.64
22753;BME280;11543;43.144;24.684;2024-03-17T10:06:22;99166.50;;;17.19;50.48
22753;BME280;11543;43.144;24.684;2024-03-17T10:08:49;99142.47;;;17.16;48.77
22753;BME280;11543;43.144;24.684;2024-03-17T10:11:50;99170.13;;;17.41;48.88
22753;BME280;11543;43.144;24.684;2024-03-17T10:14:09;99157.41;;;17.42;49.99
22753;BME280;11543;43.144;24.684;2024-03-17T10:16:36;99146.66;;;17.34;49.32
22753;BME280;11543;43.144;24.684;2024-03-17T10:19:25;99139.59;;;17.54;50.20
22753;BME280;11543;43.144;24.684;2024-03-17T10:22:00;99173.19;;;17.89;47.07
22753;BME280;11543;43.144;24.684;2024-03-17T10:24:28;99156.44;;;17.86;48.17
22753;BME280;11543;43.144;24.684;2024-03-17T10:26:57;99135.97;;;17.83;47.42
22753;BME280;11543;43.144;24.684;2024-03-17T10:29:32;99159.19;;;18.13;44.82
22753;BME280;11543;43.144;24.684;2024-03-17T10:32:14;99136.97;;;18.03;44.10
22753;BME280;11543;43.144;24.684;2024-03-17T10:34:44;99123.41;;;18.03;44.10
22753;BME280;11543;43.144;24.684;2024-03-17T10:37:15;99147.09;;;18.16;43.66
22753;BME280;11543;43.144;24.684;2024-03-17T10:39:42;99149.06;;;18.22;43.06
22753;BME280;11543;43.144;24.684;2024-03-17T10:42:10;99164.44;;;18.36;42.51
22753;BME280;11543;43.144;24.684;2024-03-17T10:44:38;99162.34;;;18.38;43.42
22753;BME280;11543;43.144;24.684;2024-03-17T10:47:05;99156.09;;;18.38;43.20
22753;BME280;11543;43.144;24.684;2024-03-17T10:49:38;99166.50;;;18.34;43.05
22753;BME280;11543;43.144;24.684;2024-03-17T10:52:13;99152.78;;;18.42;42.37
22753;BME280;11543;43.144;24.684;2024-03-17T10:54:40;99147.09;;;18.37;43.57
22753;BME280;11543;43.144;24.684;2024-03-17T11:00:06;99147.59;;;18.48;42.95
22753;BME280;11543;43.144;24.684;2024-03-17T11:02:34;99142.78;;;18.50;44.04
22753;BME280;11543;43.144;24.684;2024-03-17T11:05:24;99137.41;;;18.56;43.91
22753;BME280;11543;43.144;24.684;2024-03-17T11:07:52;99113.16;;;18.55;43.22
22753;BME280;11543;43.144;24.684;2024-03-17T11:10:28;99122.84;;;18.64;43.18
22753;BME280;11543;43.144;24.684;2024-03-17T11:20:36;99115.47;;;18.92;41.53
22753;BME280;11543;43.144;24.684;2024-03-17T11:23:05;99096.84;;;18.89;41.31
22753;BME280;11543;43.144;24.684;2024-03-17T11:27:59;99105.88;;;18.96;42.19
22753;BME280;11543;43.144;24.684;2024-03-17T11:30:43;99109.31;;;19.12;40.32
22753;BME280;11543;43.144;24.684;2024-03-17T11:38:58;99079.59;;;19.10;41.23
22753;BME280;11543;43.144;24.684;2024-03-17T11:51:54;99096.75;;;19.11;40.71
22753;BME280;11543;43.144;24.684;2024-03-17T11:54:25;99092.56;;;19.08;41.14
22753;BME280;11543;43.144;24.684;2024-03-17T11:56:53;99073.69;;;19.06;41.16
22753;BME280;11543;43.144;24.684;2024-03-17T11:59:23;99077.84;;;19.02;40.98
22753;BME280;11543;43.144;24.684;2024-03-17T12:01:49;99086.28;;;19.07;40.17
22753;BME280;11543;43.144;24.684;2024-03-17T12:04:18;99085.22;;;19.08;40.12
22753;BME280;11543;43.144;24.684;2024-03-17T12:06:52;99088.09;;;19.00;39.49
22753;BME280;11543;43.144;24.684;2024-03-17T12:09:21;99088.94;;;19.01;40.34
22753;BME280;11543;43.144;24.684;2024-03-17T12:14:20;99069.38;;;18.71;39.02
22753;BME280;11543;43.144;24.684;2024-03-17T12:16:55;99087.75;;;18.69;39.44
22753;BME280;11543;43.144;24.684;2024-03-17T12:19:22;99081.78;;;18.52;39.43
22753;BME280;11543;43.144;24.684;2024-03-17T12:21:51;99084.69;;;18.51;40.24
22753;BME280;11543;43.144;24.684;2024-03-17T12:24:20;99079.03;;;18.45;40.62
22753;BME280;11543;43.144;24.684;2024-03-17T12:26:47;99086.78;;;18.49;40.79
22753;BME280;11543;43.144;24.684;2024-03-17T12:29:30;99063.72;;;18.38;40.25
22753;BME280;11543;43.144;24.684;2024-03-17T12:32:00;99065.44;;;18.45;40.38
22753;BME280;11543;43.144;24.684;2024-03-17T12:34:29;99083.81;;;18.43;40.43
22753;BME280;11543;43.144;24.684;2024-03-17T12:36:56;99058.66;;;18.28;40.19
22753;BME280;11543;43.144;24.684;2024-03-17T12:39:27;99077.13;;;18.18;39.40
22753;BME280;11543;43.144;24.684;2024-03-17T12:47:27;99079.50;;;18.21;41.03
22753;BME280;11543;43.144;24.684;2024-03-17T12:49:54;99060.50;;;18.00;38.78
22753;BME280;11543;43.144;24.684;2024-03-17T12:52:26;99061.53;;;17.99;39.13
22753;BME280;11543;43.144;24.684;2024-03-17T12:55:00;99081.94;;;18.16;39.55
22753;BME280;11543;43.144;24.684;2024-03-17T12:57:46;99060.50;;;18.00;38.14
22753;BME280;11543;43.144;24.684;2024-03-17T13:00:31;99069.16;;;18.10;39.97
22753;BME280;11543;43.144;24.684;2024-03-17T13:02:57;99050.53;;;18.07;39.98
22753;BME280;11543;43.144;24.684;2024-03-17T13:05:23;99059.06;;;18.04;40.17
22753;BME280;11543;43.144;24.684;2024-03-17T13:07:49;99058.47;;;18.08;40.31
22753;BME280;11543;43.144;24.684;2024-03-17T13:10:19;99061.44;;;18.13;40.25
22753;BME280;11543;43.144;24.684;2024-03-17T13:12:48;99057.28;;;18.18;40.34
22753;BME280;11543;43.144;24.684;2024-03-17T13:15:16;99056.47;;;18.17;40.27
22753;BME280;11543;43.144;24.684;2024-03-17T13:17:45;99058.09;;;18.11;40.35
22753;BME280;11543;43.144;24.684;2024-03-17T13:20:15;99038.00;;;18.06;41.14
22753;BME280;11543;43.144;24.684;2024-03-17T13:22:44;99060.13;;;18.03;39.67
22753;BME280;11543;43.144;24.684;2024-03-17T13:25:18;99032.78;;;17.76;40.34
22753;BME280;11543;43.144;24.684;2024-03-17T13:27:45;99061.28;;;17.94;39.96
22753;BME280;11543;43.144;24.684;2024-03-17T13:30:16;99059.22;;;17.96;41.22
22753;BME280;11543;43.144;24.684;2024-03-17T13:32:42;99058.69;;;18.07;42.15
22753;BME280;11543;43.144;24.684;2024-03-17T13:35:19;99038.28;;;17.90;37.74
22753;BME280;11543;43.144;24.684;2024-03-17T13:37:46;99053.41;;;17.99;37.15
22753;BME280;11543;43.144;24.684;2024-03-17T13:40:13;99050.94;;;18.04;39.35